Time;durP1;ratioP1;P1;durP2;ratioP2;P2;SDS_P1;SDS_P2;PMS_P1;PMS_P2;Temp;Humidity;BMP_temperature;BMP_pressure;BME280_temperature;BME280_humidity;BME280_pressure;Samples;Min_cycle;Max_cycle;Signal;HPM_P1;HPM_P2
2023/03/31 00:01:28;;;;;;;6.33;1.30;;;;;;;;;;4984641;28;20034;-76
2023/03/31 00:04:02;;;;;;;5.07;1.00;;;;;;;;;;5004182;28;20121;-76
2023/03/31 00:06:29;;;;;;;9.57;1.60;;;;;;;;;;4988198;28;20065;-76
2023/03/31 00:08:54;;;;;;;5.17;1.23;;;;;;;;;;4987211;28;20044;-76
2023/03/31 00:11:21;;;;;;;5.20;1.47;;;;;;;;;;4988533;28;20037;-76
2023/03/31 00:13:47;;;;;;;6.47;1.13;;;;;;;;;;4986124;28;20038;-76
2023/03/31 00:16:13;;;;;;;7.07;1.90;;;;;;;;;;4985433;28;20094;-76
2023/03/31 00:18:46;;;;;;;7.73;1.20;;;;;;;;;;4994980;28;20511;-76
2023/03/31 00:21:23;;;;;;;7.32;1.40;;;;;;;;;;4997226;28;20554;-76
2023/03/31 00:24:00;;;;;;;7.03;1.10;;;;;;;;;;5004028;28;20026;-76
2023/03/31 00:26:26;;;;;;;15.33;1.87;;;;;;;;;;4984277;28;20356;-76
2023/03/31 00:28:53;;;;;;;7.53;1.90;;;;;;;;;;4986034;28;20026;-75
2023/03/31 00:31:19;;;;;;;8.97;1.30;;;;;;;;;;4993839;28;20041;-76
2023/03/31 00:33:46;;;;;;;7.97;2.13;;;;;;;;;;5005627;28;20113;-76
2023/03/31 00:36:12;;;;;;;13.37;2.33;;;;;;;;;;4988199;28;20026;-76
2023/03/31 00:38:45;;;;;;;8.57;2.50;;;;;;;;;;5002994;28;20034;-76
2023/03/31 00:41:11;;;;;;;11.17;1.90;;;;;;;;;;4991588;28;20034;-76
2023/03/31 00:43:41;;;;;;;7.57;1.47;;;;;;;;;;4986414;28;20087;-75
2023/03/31 00:46:07;;;;;;;7.07;1.20;;;;;;;;;;4989250;28;20117;-76
2023/03/31 00:48:34;;;;;;;8.90;1.33;;;;;;;;;;4983791;28;20116;-76
2023/03/31 00:51:03;;;;;;;5.23;1.30;;;;;;;;;;4983769;28;20386;-76
2023/03/31 00:53:30;;;;;;;8.67;1.50;;;;;;;;;;4991360;28;20034;-76
2023/03/31 00:55:59;;;;;;;6.93;1.17;;;;;;;;;;4972562;28;20038;-76
2023/03/31 00:58:28;;;;;;;8.87;2.03;;;;;;;;;;5004228;28;20140;-76
2023/03/31 01:00:57;;;;;;;11.93;1.90;;;;;;;;;;4985249;28;20038;-76
2023/03/31 01:03:23;;;;;;;5.73;2.17;;;;;;;;;;5001309;28;20063;-76
2023/03/31 01:05:51;;;;;;;8.53;1.43;;;;;;;;;;4990995;28;20724;-76
2023/03/31 01:08:18;;;;;;;7.10;1.37;;;;;;;;;;4985460;28;20393;-76
2023/03/31 01:10:47;;;;;;;9.40;1.63;;;;;;;;;;4986731;28;20041;-76
2023/03/31 01:13:14;;;;;;;12.33;2.00;;;;;;;;;;4987463;28;20116;-76
2023/03/31 01:15:41;;;;;;;7.73;1.57;;;;;;;;;;4991803;28;20026;-76
2023/03/31 01:18:11;;;;;;;10.93;1.50;;;;;;;;;;4988818;28;20030;-75
2023/03/31 01:20:46;;;;;;;6.37;1.27;;;;;;;;;;4982197;28;20030;-76
2023/03/31 01:23:25;;;;;;;6.23;1.30;;;;;;;;;;5004140;28;20109;-76
2023/03/31 01:26:23;;;;;;;8.60;1.47;;;;;;;;;;5005337;28;20378;-75
2023/03/31 01:28:51;;;;;;;10.40;1.67;;;;;;;;;;4958317;28;20034;-76
2023/03/31 01:31:17;;;;;;;7.33;1.37;;;;;;;;;;4988440;28;20029;-76
2023/03/31 01:34:01;;;;;;;12.40;2.10;;;;;;;;;;5004446;28;20631;-76
2023/03/31 01:36:35;;;;;;;10.63;1.87;;;;;;;;;;5004508;28;20091;-76
2023/03/31 01:39:11;;;;;;;8.17;1.83;;;;;;;;;;5003967;28;20088;-75
2023/03/31 01:41:42;;;;;;;7.93;1.47;;;;;;;;;;5005226;28;20061;-76
2023/03/31 01:44:14;;;;;;;6.53;1.37;;;;;;;;;;5003946;28;20048;-76
2023/03/31 01:46:52;;;;;;;6.78;1.67;;;;;;;;;;4990514;28;20034;-75
2023/03/31 01:49:18;;;;;;;8.60;1.90;;;;;;;;;;4983783;28;21815;-76
2023/03/31 01:52:03;;;;;;;4.87;1.40;;;;;;;;;;4993135;28;20125;-76
2023/03/31 01:54:32;;;;;;;15.53;2.03;;;;;;;;;;5004294;28;20022;-75
2023/03/31 01:57:00;;;;;;;8.10;1.57;;;;;;;;;;4991019;28;20034;-76
2023/03/31 01:59:34;;;;;;;7.10;1.70;;;;;;;;;;4983573;28;20061;-76
2023/03/31 02:02:16;;;;;;;8.03;1.63;;;;;;;;;;4990098;28;20030;-76
2023/03/31 02:04:51;;;;;;;9.57;2.33;;;;;;;;;;5003216;28;20107;-76
2023/03/31 02:07:30;;;;;;;9.20;1.70;;;;;;;;;;4990631;28;20034;-76
2023/03/31 02:09:58;;;;;;;9.53;1.50;;;;;;;;;;5002275;28;20076;-76
2023/03/31 02:12:25;;;;;;;12.00;2.20;;;;;;;;;;4990926;28;20025;-75
2023/03/31 02:14:53;;;;;;;12.43;2.80;;;;;;;;;;5001934;28;20053;-76
2023/03/31 02:17:21;;;;;;;10.97;2.27;;;;;;;;;;4991428;28;20064;-75
2023/03/31 02:19:48;;;;;;;10.10;2.33;;;;;;;;;;4998477;28;20048;-76
2023/03/31 02:22:18;;;;;;;12.47;1.73;;;;;;;;;;5002594;28;20046;-75
2023/03/31 02:24:45;;;;;;;10.33;2.47;;;;;;;;;;5002158;28;20145;-76
2023/03/31 02:27:30;;;;;;;17.10;2.40;;;;;;;;;;5001016;28;20117;-76
2023/03/31 02:29:56;;;;;;;13.17;2.53;;;;;;;;;;4989885;28;20240;-76
2023/03/31 02:32:52;;;;;;;10.53;1.90;;;;;;;;;;4983082;28;20044;-76
2023/03/31 02:35:19;;;;;;;6.53;1.60;;;;;;;;;;4975906;28;20119;-76
2023/03/31 02:37:45;;;;;;;14.00;2.43;;;;;;;;;;5007892;28;20030;-77
2023/03/31 02:40:19;;;;;;;9.67;2.13;;;;;;;;;;5006984;28;20459;-76
2023/03/31 02:42:45;;;;;;;15.47;2.30;;;;;;;;;;5005073;28;20049;-75
2023/03/31 02:45:30;;;;;;;11.07;2.30;;;;;;;;;;5006114;28;20044;-76
2023/03/31 02:47:56;;;;;;;15.57;2.43;;;;;;;;;;4987690;28;20053;-76
2023/03/31 02:50:24;;;;;;;13.00;2.40;;;;;;;;;;4992803;28;20033;-76
2023/03/31 02:53:02;;;;;;;11.50;2.40;;;;;;;;;;4997225;28;20030;-76
2023/03/31 02:55:36;;;;;;;14.13;2.70;;;;;;;;;;5004266;28;20053;-76
2023/03/31 02:58:02;;;;;;;11.00;2.30;;;;;;;;;;5005376;28;20037;-76
2023/03/31 03:00:28;;;;;;;15.13;2.77;;;;;;;;;;5005742;28;20113;-76
2023/03/31 03:03:02;;;;;;;14.90;2.23;;;;;;;;;;5005871;28;20038;-76
2023/03/31 03:05:44;;;;;;;16.80;2.73;;;;;;;;;;4993751;28;20034;-76
2023/03/31 03:08:16;;;;;;;11.88;2.92;;;;;;;;;;5005040;28;20030;-76
2023/03/31 03:10:45;;;;;;;21.98;3.58;;;;;;;;;;5006396;28;20034;-77
2023/03/31 03:13:23;;;;;;;10.63;2.37;;;;;;;;;;5004766;28;20034;-76
2023/03/31 03:15:55;;;;;;;14.87;2.77;;;;;;;;;;4990940;28;20931;-76
2023/03/31 03:18:21;;;;;;;10.10;2.10;;;;;;;;;;4984926;28;20049;-76
2023/03/31 03:20:49;;;;;;;12.73;2.27;;;;;;;;;;4988231;28;20072;-76
2023/03/31 03:23:16;;;;;;;12.67;2.23;;;;;;;;;;4986208;28;20114;-76
2023/03/31 03:25:43;;;;;;;19.00;3.30;;;;;;;;;;4993038;28;20435;-77
2023/03/31 03:28:09;;;;;;;10.13;2.30;;;;;;;;;;4990411;28;20053;-76
2023/03/31 03:30:35;;;;;;;15.07;2.77;;;;;;;;;;4996110;28;20112;-76
2023/03/31 03:33:02;;;;;;;14.03;2.50;;;;;;;;;;5005334;28;20035;-76
2023/03/31 03:35:28;;;;;;;15.87;3.30;;;;;;;;;;4986828;28;20108;-76
2023/03/31 03:37:54;;;;;;;14.47;3.20;;;;;;;;;;5005354;28;20489;-76
2023/03/31 03:40:22;;;;;;;15.87;2.50;;;;;;;;;;5007569;28;20057;-76
2023/03/31 03:42:48;;;;;;;16.83;3.23;;;;;;;;;;4984600;28;20033;-76
2023/03/31 03:45:14;;;;;;;10.63;3.17;;;;;;;;;;4984393;28;20263;-76
2023/03/31 03:47:43;;;;;;;13.37;2.67;;;;;;;;;;4990943;28;20046;-76
2023/03/31 03:50:10;;;;;;;9.40;2.83;;;;;;;;;;4985785;28;20072;-75
2023/03/31 03:52:39;;;;;;;8.97;2.20;;;;;;;;;;5004300;28;20026;-76
2023/03/31 03:55:05;;;;;;;14.97;2.33;;;;;;;;;;5005634;28;20060;-76
2023/03/31 03:57:31;;;;;;;10.07;2.27;;;;;;;;;;4992993;28;20029;-76
2023/03/31 03:59:57;;;;;;;9.33;1.67;;;;;;;;;;5006216;28;20060;-76
2023/03/31 04:02:23;;;;;;;7.70;2.23;;;;;;;;;;4984905;28;20033;-76
2023/03/31 04:04:49;;;;;;;8.27;2.13;;;;;;;;;;4990642;28;20486;-76
2023/03/31 04:07:16;;;;;;;7.07;1.93;;;;;;;;;;5005919;28;20030;-76
2023/03/31 04:09:42;;;;;;;7.97;1.67;;;;;;;;;;4993331;28;20025;-76
2023/03/31 04:12:08;;;;;;;12.63;2.50;;;;;;;;;;5004887;28;20104;-75
2023/03/31 04:14:34;;;;;;;9.23;1.40;;;;;;;;;;4992115;28;20133;-76
2023/03/31 04:17:01;;;;;;;13.30;2.30;;;;;;;;;;5004110;28;20065;-76
2023/03/31 04:19:27;;;;;;;11.27;1.80;;;;;;;;;;4998620;28;20096;-76
2023/03/31 04:22:01;;;;;;;11.47;3.00;;;;;;;;;;4985208;28;20029;-76
2023/03/31 04:24:31;;;;;;;7.90;1.53;;;;;;;;;;4996244;28;20021;-76
2023/03/31 04:26:57;;;;;;;7.30;1.63;;;;;;;;;;5004092;28;20104;-76
2023/03/31 04:29:25;;;;;;;6.67;1.60;;;;;;;;;;5002786;28;20899;-76
2023/03/31 04:31:52;;;;;;;5.17;0.93;;;;;;;;;;4984407;28;20044;-75
2023/03/31 04:34:21;;;;;;;4.93;1.20;;;;;;;;;;5008981;28;20029;-74
2023/03/31 04:36:47;;;;;;;3.33;0.93;;;;;;;;;;4992566;28;20132;-76
2023/03/31 04:39:16;;;;;;;7.27;1.23;;;;;;;;;;5003937;28;20040;-76
2023/03/31 04:41:42;;;;;;;11.07;1.30;;;;;;;;;;4986460;28;20065;-76
2023/03/31 04:44:08;;;;;;;6.23;1.43;;;;;;;;;;5002639;28;20061;-75
2023/03/31 04:46:34;;;;;;;5.33;1.43;;;;;;;;;;4995388;28;20119;-76
2023/03/31 04:49:01;;;;;;;8.20;1.70;;;;;;;;;;4992103;28;20121;-74
2023/03/31 04:51:27;;;;;;;9.13;1.53;;;;;;;;;;4994738;28;20049;-75
2023/03/31 04:53:53;;;;;;;5.27;1.30;;;;;;;;;;4986360;28;20809;-76
2023/03/31 04:56:19;;;;;;;8.83;1.60;;;;;;;;;;4986927;28;20614;-76
2023/03/31 04:58:45;;;;;;;6.03;1.60;;;;;;;;;;4989562;28;20061;-75
2023/03/31 05:01:17;;;;;;;8.73;1.70;;;;;;;;;;4990492;28;20121;-76
2023/03/31 05:03:43;;;;;;;9.30;1.50;;;;;;;;;;4991295;28;20138;-76
2023/03/31 05:06:09;;;;;;;9.73;1.97;;;;;;;;;;5003445;28;20026;-76
2023/03/31 05:08:38;;;;;;;8.30;2.37;;;;;;;;;;4991327;28;20113;-75
2023/03/31 05:11:05;;;;;;;9.70;2.20;;;;;;;;;;5003856;28;20468;-73
2023/03/31 05:13:30;;;;;;;7.83;1.80;;;;;;;;;;5005973;28;20040;-76
2023/03/31 05:16:05;;;;;;;14.53;4.10;;;;;;;;;;5004089;28;20385;-75
2023/03/31 05:18:31;;;;;;;12.57;4.20;;;;;;;;;;5004482;28;20033;-75
2023/03/31 05:20:57;;;;;;;7.17;1.50;;;;;;;;;;4990968;28;20025;-75
2023/03/31 05:23:22;;;;;;;7.47;1.73;;;;;;;;;;4990525;28;20362;-75
2023/03/31 05:25:48;;;;;;;4.83;1.30;;;;;;;;;;4990108;28;20030;-76
2023/03/31 05:28:14;;;;;;;5.53;1.20;;;;;;;;;;5002921;28;20049;-76
2023/03/31 05:30:40;;;;;;;6.97;1.50;;;;;;;;;;5004553;28;20033;-76
2023/03/31 05:33:09;;;;;;;6.13;1.37;;;;;;;;;;4989516;28;21745;-75
2023/03/31 05:35:35;;;;;;;7.40;1.33;;;;;;;;;;4990403;28;20041;-76
2023/03/31 05:38:01;;;;;;;6.83;1.00;;;;;;;;;;4986108;28;20501;-76
2023/03/31 05:40:27;;;;;;;8.43;1.40;;;;;;;;;;4987207;28;20025;-75
2023/03/31 05:42:53;;;;;;;6.13;2.03;;;;;;;;;;4985985;28;20070;-76
2023/03/31 05:45:19;;;;;;;4.73;0.90;;;;;;;;;;5005259;28;20033;-76
2023/03/31 05:47:45;;;;;;;9.77;1.37;;;;;;;;;;5003225;28;20120;-75
2023/03/31 05:50:11;;;;;;;3.97;1.07;;;;;;;;;;4992038;28;20133;-75
2023/03/31 05:52:37;;;;;;;5.30;1.37;;;;;;;;;;5005031;28;20029;-76
2023/03/31 05:55:03;;;;;;;3.67;0.93;;;;;;;;;;4984471;28;20160;-75
2023/03/31 05:57:30;;;;;;;6.57;1.40;;;;;;;;;;5005941;28;20062;-76
2023/03/31 05:59:58;;;;;;;7.90;1.67;;;;;;;;;;5004370;28;21626;-76
2023/03/31 06:02:24;;;;;;;5.43;1.13;;;;;;;;;;5004283;28;20030;-76
2023/03/31 06:04:53;;;;;;;5.47;0.93;;;;;;;;;;4988779;28;20030;-74
2023/03/31 06:07:21;;;;;;;2.90;0.90;;;;;;;;;;5005869;28;20030;-74
2023/03/31 06:09:49;;;;;;;6.60;1.20;;;;;;;;;;4991279;28;20036;-76
2023/03/31 06:12:15;;;;;;;4.67;1.13;;;;;;;;;;5008650;28;20038;-76
2023/03/31 06:14:41;;;;;;;4.03;0.60;;;;;;;;;;4991432;28;20046;-75
2023/03/31 06:17:07;;;;;;;2.90;0.70;;;;;;;;;;4991605;28;20116;-76
2023/03/31 06:19:33;;;;;;;3.50;0.80;;;;;;;;;;4992664;28;20125;-76
2023/03/31 06:21:59;;;;;;;1.87;0.63;;;;;;;;;;5008471;28;21605;-76
2023/03/31 06:24:25;;;;;;;2.43;0.50;;;;;;;;;;5006499;28;20108;-76
2023/03/31 06:26:51;;;;;;;1.40;0.40;;;;;;;;;;4993754;28;20371;-75
2023/03/31 06:29:17;;;;;;;1.93;0.50;;;;;;;;;;4994606;28;20026;-76
2023/03/31 06:31:43;;;;;;;1.10;0.30;;;;;;;;;;4988784;28;20462;-75
2023/03/31 06:34:09;;;;;;;2.03;0.50;;;;;;;;;;5006711;28;20045;-76
2023/03/31 06:36:35;;;;;;;1.17;0.40;;;;;;;;;;4994267;28;20613;-76
2023/03/31 06:39:01;;;;;;;3.60;0.50;;;;;;;;;;5007117;28;20030;-74
2023/03/31 06:41:27;;;;;;;2.50;0.80;;;;;;;;;;4997310;28;20061;-76
2023/03/31 06:43:53;;;;;;;2.03;0.40;;;;;;;;;;5007464;28;20423;-75
2023/03/31 06:46:20;;;;;;;3.07;0.67;;;;;;;;;;4990128;28;20102;-76
2023/03/31 06:48:45;;;;;;;2.27;0.80;;;;;;;;;;4986239;28;20112;-76
2023/03/31 06:51:14;;;;;;;5.47;0.83;;;;;;;;;;5007720;28;20112;-75
2023/03/31 06:53:40;;;;;;;2.73;0.80;;;;;;;;;;4990251;28;20042;-76
2023/03/31 06:56:06;;;;;;;3.50;0.57;;;;;;;;;;4990543;28;20305;-76
2023/03/31 06:58:33;;;;;;;4.77;1.47;;;;;;;;;;4990968;28;20084;-75
2023/03/31 07:01:01;;;;;;;2.57;0.97;;;;;;;;;;5007854;28;20125;-76
2023/03/31 07:03:28;;;;;;;1.73;0.60;;;;;;;;;;4993883;28;20048;-76
2023/03/31 07:05:54;;;;;;;3.23;1.03;;;;;;;;;;4985312;28;20029;-75
2023/03/31 07:08:21;;;;;;;4.83;1.10;;;;;;;;;;5007433;28;20034;-76
2023/03/31 07:10:48;;;;;;;3.40;0.90;;;;;;;;;;4997087;28;20038;-75
2023/03/31 07:13:14;;;;;;;6.80;0.70;;;;;;;;;;5005006;28;20120;-76
2023/03/31 07:15:44;;;;;;;4.03;0.97;;;;;;;;;;4991106;28;20123;-75
2023/03/31 07:18:11;;;;;;;3.33;0.90;;;;;;;;;;5006121;28;20465;-75
2023/03/31 07:20:37;;;;;;;2.37;0.57;;;;;;;;;;4991605;28;20044;-76
2023/03/31 07:23:04;;;;;;;1.90;0.57;;;;;;;;;;4989306;28;20060;-76
2023/03/31 07:25:31;;;;;;;2.43;0.60;;;;;;;;;;5006618;28;20045;-75
2023/03/31 07:27:57;;;;;;;3.30;0.80;;;;;;;;;;5005714;28;20471;-75
2023/03/31 07:30:23;;;;;;;4.23;1.03;;;;;;;;;;4987692;28;20062;-75
2023/03/31 07:32:50;;;;;;;2.60;0.50;;;;;;;;;;4987743;28;20040;-76
2023/03/31 07:35:16;;;;;;;2.13;0.63;;;;;;;;;;4985564;28;20451;-76
2023/03/31 07:37:44;;;;;;;3.27;0.83;;;;;;;;;;4997823;28;20041;-75
2023/03/31 07:40:14;;;;;;;2.37;0.73;;;;;;;;;;4987631;28;20421;-75
2023/03/31 07:42:40;;;;;;;1.97;0.63;;;;;;;;;;5005275;28;20069;-75
2023/03/31 07:45:06;;;;;;;3.53;0.60;;;;;;;;;;5002880;28;20085;-75
2023/03/31 07:47:35;;;;;;;2.40;0.50;;;;;;;;;;4987453;28;20095;-75
2023/03/31 07:50:04;;;;;;;3.90;0.80;;;;;;;;;;4992906;28;20125;-76
2023/03/31 07:52:30;;;;;;;4.20;0.70;;;;;;;;;;5005218;28;20030;-76
2023/03/31 07:54:56;;;;;;;2.77;0.67;;;;;;;;;;4994412;28;20450;-75
2023/03/31 07:57:22;;;;;;;4.77;1.67;;;;;;;;;;4991994;28;20034;-75
2023/03/31 07:59:48;;;;;;;2.27;0.90;;;;;;;;;;5007533;28;20036;-75
2023/03/31 08:02:16;;;;;;;4.43;1.17;;;;;;;;;;5005952;28;20065;-76
2023/03/31 08:04:42;;;;;;;2.80;1.23;;;;;;;;;;5007328;28;20030;-76
2023/03/31 08:07:12;;;;;;;4.90;1.40;;;;;;;;;;5007974;28;20092;-75
2023/03/31 08:09:38;;;;;;;6.23;1.13;;;;;;;;;;5006549;28;20031;-76
2023/03/31 08:12:05;;;;;;;3.37;1.13;;;;;;;;;;4984829;28;20056;-76
2023/03/31 08:14:31;;;;;;;5.40;1.90;;;;;;;;;;5006242;28;20043;-75
2023/03/31 08:16:59;;;;;;;5.70;1.10;;;;;;;;;;5006410;28;20116;-75
2023/03/31 08:19:25;;;;;;;4.07;1.00;;;;;;;;;;5006712;28;20036;-76
2023/03/31 08:21:51;;;;;;;7.03;1.30;;;;;;;;;;5005040;28;20063;-76
2023/03/31 08:24:17;;;;;;;6.17;1.10;;;;;;;;;;5005166;28;20105;-75
2023/03/31 08:26:43;;;;;;;4.97;1.50;;;;;;;;;;5006925;28;20076;-75
2023/03/31 08:29:09;;;;;;;5.40;1.33;;;;;;;;;;4986233;28;20030;-76
2023/03/31 08:31:35;;;;;;;8.13;1.97;;;;;;;;;;4989452;28;20037;-76
2023/03/31 08:34:01;;;;;;;3.87;1.20;;;;;;;;;;4990147;28;20068;-76
2023/03/31 08:36:28;;;;;;;10.03;1.50;;;;;;;;;;4990087;28;20034;-75
2023/03/31 08:38:56;;;;;;;9.60;1.83;;;;;;;;;;4986588;28;20037;-75
2023/03/31 08:41:41;;;;;;;5.47;1.33;;;;;;;;;;4993881;28;20030;-76
2023/03/31 08:44:11;;;;;;;9.63;1.77;;;;;;;;;;4991727;28;20451;-75
2023/03/31 08:46:38;;;;;;;6.07;1.20;;;;;;;;;;4989731;28;20032;-75
2023/03/31 08:49:04;;;;;;;7.97;1.63;;;;;;;;;;5004973;28;20026;-76
2023/03/31 08:51:33;;;;;;;8.13;1.65;;;;;;;;;;5004002;28;20040;-75
2023/03/31 08:54:03;;;;;;;6.03;1.52;;;;;;;;;;4985050;28;20049;-75
2023/03/31 08:56:30;;;;;;;6.78;1.77;;;;;;;;;;4984618;28;20037;-75
2023/03/31 08:59:00;;;;;;;7.20;1.80;;;;;;;;;;4985175;28;20085;-75
2023/03/31 09:01:33;;;;;;;9.77;1.85;;;;;;;;;;4986395;28;20084;-76
2023/03/31 09:04:17;;;;;;;8.70;1.50;;;;;;;;;;5004501;28;20033;-75
2023/03/31 09:06:43;;;;;;;7.20;1.83;;;;;;;;;;5007088;28;20046;-75
2023/03/31 09:09:11;;;;;;;11.23;1.77;;;;;;;;;;5004402;28;20030;-75
2023/03/31 09:11:45;;;;;;;9.82;2.45;;;;;;;;;;5005834;28;20037;-76
2023/03/31 09:14:19;;;;;;;6.70;1.55;;;;;;;;;;5005158;28;20073;-76
2023/03/31 09:16:45;;;;;;;9.25;2.40;;;;;;;;;;4991814;28;20034;-76
2023/03/31 09:19:14;;;;;;;5.60;1.30;;;;;;;;;;4997112;28;20176;-76
2023/03/31 09:21:45;;;;;;;9.48;1.58;;;;;;;;;;4983574;28;20464;-75
2023/03/31 09:24:27;;;;;;;7.45;2.17;;;;;;;;;;4991757;28;20034;-76
2023/03/31 09:26:55;;;;;;;11.98;3.03;;;;;;;;;;4985239;28;20036;-76
2023/03/31 09:29:30;;;;;;;12.60;2.33;;;;;;;;;;4991973;28;20026;-75
2023/03/31 09:32:01;;;;;;;7.13;1.67;;;;;;;;;;4983455;28;20038;-76
2023/03/31 09:34:32;;;;;;;8.00;2.10;;;;;;;;;;4983823;28;20443;-74
2023/03/31 09:36:58;;;;;;;9.05;2.15;;;;;;;;;;5004554;28;20101;-76
2023/03/31 09:39:24;;;;;;;10.20;1.90;;;;;;;;;;5006469;28;20105;-75
2023/03/31 09:41:52;;;;;;;8.77;1.88;;;;;;;;;;4987840;28;20030;-76
2023/03/31 09:44:24;;;;;;;11.18;1.92;;;;;;;;;;4987257;28;20509;-76
2023/03/31 09:46:50;;;;;;;6.88;1.52;;;;;;;;;;4988926;28;20109;-76
2023/03/31 09:49:21;;;;;;;9.88;1.95;;;;;;;;;;4992986;28;20026;-75
2023/03/31 09:51:49;;;;;;;10.40;1.85;;;;;;;;;;4988074;28;20034;-75
2023/03/31 09:54:34;;;;;;;9.60;1.92;;;;;;;;;;5008055;28;20075;-76
2023/03/31 09:57:00;;;;;;;9.13;2.28;;;;;;;;;;4987317;28;20038;-76
2023/03/31 09:59:31;;;;;;;8.88;1.90;;;;;;;;;;5004569;28;21750;-76
2023/03/31 10:01:58;;;;;;;10.13;2.10;;;;;;;;;;4991595;28;20398;-75
2023/03/31 10:04:25;;;;;;;12.30;2.17;;;;;;;;;;4981953;28;20034;-75
2023/03/31 10:06:52;;;;;;;10.80;2.13;;;;;;;;;;4984249;28;20053;-76
2023/03/31 10:09:20;;;;;;;11.18;2.42;;;;;;;;;;4994588;28;20033;-75
2023/03/31 10:12:16;;;;;;;8.18;2.33;;;;;;;;;;4987995;28;20092;-74
2023/03/31 10:14:49;;;;;;;8.77;2.55;;;;;;;;;;4975443;28;20556;-76
2023/03/31 10:17:16;;;;;;;9.52;2.10;;;;;;;;;;5002727;28;20113;-76
2023/03/31 10:19:50;;;;;;;11.18;2.65;;;;;;;;;;5004277;28;20029;-74
2023/03/31 10:22:36;;;;;;;11.00;2.22;;;;;;;;;;4985045;28;20038;-75
2023/03/31 10:25:10;;;;;;;12.13;2.03;;;;;;;;;;4986991;28;20073;-74
2023/03/31 10:27:38;;;;;;;13.23;2.88;;;;;;;;;;4986576;28;20030;-75
2023/03/31 10:30:08;;;;;;;8.93;2.13;;;;;;;;;;5005365;28;20045;-74
2023/03/31 10:32:39;;;;;;;11.65;2.15;;;;;;;;;;4991070;28;20104;-76
2023/03/31 10:35:08;;;;;;;16.45;2.33;;;;;;;;;;4995012;28;20035;-76
2023/03/31 10:37:35;;;;;;;8.55;2.78;;;;;;;;;;4991745;28;20030;-75
2023/03/31 10:40:20;;;;;;;6.32;2.13;;;;;;;;;;4991229;28;20034;-75
2023/03/31 10:42:47;;;;;;;9.27;1.90;;;;;;;;;;5006286;28;20046;-76
2023/03/31 10:45:33;;;;;;;10.68;2.22;;;;;;;;;;5005205;28;20038;-76
2023/03/31 10:48:00;;;;;;;14.85;2.28;;;;;;;;;;4974231;28;20041;-77
2023/03/31 10:50:27;;;;;;;11.23;2.40;;;;;;;;;;5006368;28;20017;-76
2023/03/31 10:53:00;;;;;;;6.28;2.70;;;;;;;;;;4989069;28;20041;-76
2023/03/31 10:55:28;;;;;;;6.90;1.73;;;;;;;;;;4992922;28;20041;-76
2023/03/31 10:57:56;;;;;;;8.82;1.73;;;;;;;;;;5007700;28;20034;-76
2023/03/31 11:00:28;;;;;;;8.40;2.15;;;;;;;;;;4988250;28;20490;-76
2023/03/31 11:03:16;;;;;;;8.45;1.50;;;;;;;;;;4986362;28;20069;-74
2023/03/31 11:05:50;;;;;;;6.25;1.67;;;;;;;;;;5007038;28;20034;-74
2023/03/31 11:08:18;;;;;;;4.93;1.05;;;;;;;;;;5005708;28;20038;-75
2023/03/31 11:10:58;;;;;;;5.63;1.10;;;;;;;;;;5008194;28;20029;-76
2023/03/31 11:13:32;;;;;;;3.75;1.10;;;;;;;;;;4993496;28;20112;-75
2023/03/31 11:16:17;;;;;;;3.60;1.20;;;;;;;;;;5006910;28;20325;-74
2023/03/31 11:19:06;;;;;;;4.40;0.57;;;;;;;;;;4988946;28;20033;-76
2023/03/31 11:21:40;;;;;;;6.23;0.93;;;;;;;;;;5008560;28;20033;-76
2023/03/31 11:24:26;;;;;;;4.03;0.80;;;;;;;;;;4993633;28;20130;-76
2023/03/31 11:26:52;;;;;;;10.20;0.73;;;;;;;;;;4988124;28;20089;-75
2023/03/31 11:29:18;;;;;;;9.10;1.20;;;;;;;;;;5008205;28;20027;-74
2023/03/31 11:31:54;;;;;;;4.13;1.20;;;;;;;;;;5008429;28;20109;-76
2023/03/31 11:34:28;;;;;;;7.27;1.07;;;;;;;;;;4997786;28;20468;-76
2023/03/31 11:37:14;;;;;;;5.57;1.37;;;;;;;;;;4996308;28;20037;-76
2023/03/31 11:39:40;;;;;;;5.17;0.97;;;;;;;;;;5007790;28;20025;-76
2023/03/31 11:42:20;;;;;;;5.60;0.97;;;;;;;;;;4993186;28;20049;-76
2023/03/31 11:44:51;;;;;;;12.07;1.70;;;;;;;;;;5006082;28;20033;-75
2023/03/31 11:47:24;;;;;;;7.05;1.75;;;;;;;;;;5004837;28;20381;-75
2023/03/31 11:49:53;;;;;;;7.75;1.77;;;;;;;;;;4996549;28;20053;-76
2023/03/31 11:52:22;;;;;;;7.38;1.75;;;;;;;;;;4991861;28;20055;-76
2023/03/31 11:54:48;;;;;;;10.73;2.38;;;;;;;;;;5006146;28;20041;-74
2023/03/31 11:57:17;;;;;;;11.60;2.42;;;;;;;;;;4986853;28;20033;-76
2023/03/31 11:59:44;;;;;;;8.93;2.30;;;;;;;;;;5005787;28;21826;-76
2023/03/31 12:02:15;;;;;;;11.00;2.42;;;;;;;;;;4986840;28;20080;-76
2023/03/31 12:04:43;;;;;;;11.52;2.25;;;;;;;;;;5005742;28;20103;-76
2023/03/31 12:07:12;;;;;;;13.85;3.10;;;;;;;;;;4990304;28;20430;-76
2023/03/31 12:09:44;;;;;;;10.35;2.63;;;;;;;;;;4991800;28;20366;-76
2023/03/31 12:12:16;;;;;;;7.50;2.00;;;;;;;;;;4991140;28;20038;-76
2023/03/31 12:14:51;;;;;;;9.63;2.75;;;;;;;;;;4988015;28;20032;-76
2023/03/31 12:17:24;;;;;;;8.90;2.30;;;;;;;;;;4989987;28;20040;-76
2023/03/31 12:19:59;;;;;;;10.00;2.60;;;;;;;;;;4993581;28;20537;-76
2023/03/31 12:22:42;;;;;;;12.52;2.25;;;;;;;;;;5006252;28;20026;-76
2023/03/31 12:25:12;;;;;;;10.55;2.58;;;;;;;;;;4993720;28;20041;-75
2023/03/31 12:27:41;;;;;;;9.40;2.40;;;;;;;;;;4989275;28;20085;-76
2023/03/31 12:30:19;;;;;;;14.15;2.47;;;;;;;;;;5005873;28;20026;-76
2023/03/31 12:32:47;;;;;;;8.38;2.17;;;;;;;;;;5006874;28;20306;-76
2023/03/31 12:35:20;;;;;;;10.73;2.17;;;;;;;;;;4995731;28;20080;-75
2023/03/31 12:38:05;;;;;;;6.03;1.70;;;;;;;;;;5006506;28;20027;-74
2023/03/31 12:40:41;;;;;;;9.23;1.90;;;;;;;;;;5005965;28;20053;-75
2023/03/31 12:43:08;;;;;;;11.33;1.73;;;;;;;;;;4993198;28;20091;-75
2023/03/31 12:45:44;;;;;;;6.83;2.43;;;;;;;;;;4991526;28;20030;-75
2023/03/31 12:48:10;;;;;;;8.93;2.40;;;;;;;;;;4991171;28;20438;-76
2023/03/31 12:50:48;;;;;;;7.25;1.67;;;;;;;;;;4992381;28;20034;-74
2023/03/31 12:53:26;;;;;;;10.02;1.80;;;;;;;;;;5008216;28;20413;-75
2023/03/31 12:55:59;;;;;;;9.63;2.28;;;;;;;;;;5006703;28;20026;-76
2023/03/31 12:58:28;;;;;;;7.75;2.08;;;;;;;;;;4986287;28;20038;-76
2023/03/31 13:01:14;;;;;;;6.10;1.35;;;;;;;;;;5005062;28;20026;-76
2023/03/31 13:03:50;;;;;;;7.28;2.20;;;;;;;;;;4990439;28;20109;-76
2023/03/31 13:06:27;;;;;;;5.28;1.40;;;;;;;;;;5005334;28;20049;-75
2023/03/31 13:08:56;;;;;;;8.10;1.80;;;;;;;;;;5005706;28;20105;-76
2023/03/31 13:11:22;;;;;;;10.73;1.67;;;;;;;;;;5005519;28;20029;-75
2023/03/31 13:13:57;;;;;;;9.43;1.93;;;;;;;;;;4995013;28;20040;-76
2023/03/31 13:16:24;;;;;;;11.13;1.67;;;;;;;;;;4986932;28;20473;-75
2023/03/31 13:18:51;;;;;;;8.30;1.77;;;;;;;;;;5007034;28;20049;-76
2023/03/31 13:21:18;;;;;;;7.90;1.60;;;;;;;;;;5004860;28;20060;-77
2023/03/31 13:23:47;;;;;;;5.70;1.30;;;;;;;;;;4997745;28;20109;-75
2023/03/31 13:26:40;;;;;;;7.65;1.33;;;;;;;;;;5003664;28;20095;-77
2023/03/31 13:29:17;;;;;;;7.63;1.80;;;;;;;;;;4985020;28;20034;-74
2023/03/31 13:32:10;;;;;;;6.50;1.70;;;;;;;;;;5008016;28;20033;-76
2023/03/31 13:34:46;;;;;;;5.63;1.50;;;;;;;;;;5001686;28;20060;-76
2023/03/31 13:37:34;;;;;;;9.38;1.63;;;;;;;;;;4985654;28;20482;-76
2023/03/31 13:40:12;;;;;;;6.25;1.85;;;;;;;;;;5004850;28;20042;-76
2023/03/31 13:42:41;;;;;;;5.82;1.27;;;;;;;;;;4993288;28;20030;-76
2023/03/31 13:45:19;;;;;;;8.80;1.40;;;;;;;;;;4996845;28;20046;-75
2023/03/31 13:48:15;;;;;;;5.47;1.17;;;;;;;;;;4990406;28;20111;-75
2023/03/31 13:50:41;;;;;;;7.75;2.10;;;;;;;;;;4940220;28;20044;-75
2023/03/31 13:53:09;;;;;;;6.90;1.80;;;;;;;;;;4990468;28;20038;-75
2023/03/31 13:55:59;;;;;;;7.28;1.85;;;;;;;;;;4991509;28;20034;-75
2023/03/31 13:58:44;;;;;;;5.13;1.23;;;;;;;;;;5004533;28;20038;-76
2023/03/31 14:01:25;;;;;;;6.35;1.42;;;;;;;;;;5005099;28;20038;-78
2023/03/31 14:03:54;;;;;;;10.80;1.98;;;;;;;;;;5005856;28;20101;-76
2023/03/31 14:06:25;;;;;;;6.70;1.42;;;;;;;;;;4984591;28;20026;-76
2023/03/31 14:08:56;;;;;;;6.10;1.27;;;;;;;;;;5003143;28;20030;-76
2023/03/31 14:11:27;;;;;;;4.40;1.10;;;;;;;;;;4986706;28;20042;-75
2023/03/31 14:14:02;;;;;;;6.97;1.50;;;;;;;;;;4982469;28;20038;-76
2023/03/31 14:16:31;;;;;;;4.05;1.00;;;;;;;;;;5007156;28;20042;-76
2023/03/31 14:19:09;;;;;;;5.05;1.13;;;;;;;;;;5004748;28;20406;-75
2023/03/31 14:21:44;;;;;;;4.55;1.20;;;;;;;;;;5004535;28;20046;-76
2023/03/31 14:24:10;;;;;;;3.05;0.75;;;;;;;;;;4985626;28;20030;-76
2023/03/31 14:26:45;;;;;;;2.83;0.68;;;;;;;;;;4990895;28;20030;-76
2023/03/31 14:29:23;;;;;;;2.15;0.63;;;;;;;;;;4992991;28;20397;-76
2023/03/31 14:31:57;;;;;;;5.70;0.85;;;;;;;;;;4993552;28;20038;-75
2023/03/31 14:34:34;;;;;;;1.95;0.60;;;;;;;;;;4998347;28;20042;-78
2023/03/31 14:37:01;;;;;;;2.70;0.63;;;;;;;;;;4995143;28;20033;-77
2023/03/31 14:39:29;;;;;;;1.77;0.80;;;;;;;;;;4992543;28;20115;-76
2023/03/31 14:41:58;;;;;;;3.67;0.90;;;;;;;;;;5007674;28;20038;-77
2023/03/31 14:44:25;;;;;;;3.15;0.90;;;;;;;;;;5009559;28;20520;-77
2023/03/31 14:46:51;;;;;;;2.00;0.60;;;;;;;;;;5008268;28;20092;-76
2023/03/31 14:49:24;;;;;;;6.90;1.60;;;;;;;;;;4996576;28;20037;-76
2023/03/31 14:51:52;;;;;;;5.68;1.30;;;;;;;;;;5008484;28;20033;-77
2023/03/31 14:54:19;;;;;;;4.05;1.25;;;;;;;;;;5008001;28;20038;-77
2023/03/31 14:56:47;;;;;;;5.57;1.25;;;;;;;;;;4994736;28;20413;-77
2023/03/31 14:59:16;;;;;;;7.65;1.33;;;;;;;;;;5008522;28;20463;-76